createdAt,value
2019-04-14T00:01:36.959Z,110.80
2019-04-14T00:04:18.729Z,104.50
2019-04-14T00:06:51.182Z,109.30
2019-04-14T00:09:23.220Z,108.97
2019-04-14T00:11:56.945Z,97.73
2019-04-14T00:14:29.390Z,95.13
2019-04-14T00:17:02.134Z,97.90
2019-04-14T00:19:34.888Z,100.90
2019-04-14T00:22:07.317Z,99.37
2019-04-14T00:24:40.258Z,96.07
2019-04-14T00:27:12.815Z,87.23
2019-04-14T00:29:45.768Z,76.27
2019-04-14T00:32:18.331Z,77.43
2019-04-14T00:35:16.665Z,80.83
2019-04-14T00:38:13.692Z,71.87
2019-04-14T00:40:52.507Z,71.13
2019-04-14T00:43:46.100Z,69.97
2019-04-14T00:46:27.882Z,69.23
2019-04-14T00:49:00.591Z,70.30
2019-04-14T00:51:33.131Z,72.40
2019-04-14T00:54:06.526Z,71.37
2019-04-14T00:56:39.024Z,73.23
2019-04-14T00:59:11.464Z,68.87
2019-04-14T01:01:43.770Z,68.83
2019-04-14T01:04:16.540Z,67.67
2019-04-14T01:06:49.044Z,65.83
2019-04-14T01:09:21.650Z,67.97
2019-04-14T01:11:53.768Z,71.47
2019-04-14T01:14:25.827Z,67.80
2019-04-14T01:16:58.043Z,63.53
2019-04-14T01:19:30.939Z,67.67
2019-04-14T01:22:03.218Z,66.07
2019-04-14T01:24:35.974Z,63.67
2019-04-14T01:27:08.214Z,64.63
2019-04-14T01:29:40.525Z,64.50
2019-04-14T01:32:13.293Z,68.43
2019-04-14T01:34:45.618Z,67.33
2019-04-14T01:37:17.973Z,68.43
2019-04-14T01:39:50.353Z,63.13
2019-04-14T01:42:22.405Z,66.27
2019-04-14T01:44:54.751Z,65.07
2019-04-14T01:47:27.071Z,63.03
2019-04-14T01:49:59.477Z,62.93
2019-04-14T01:52:59.180Z,61.30
2019-04-14T01:55:46.258Z,62.10
2019-04-14T01:58:25.064Z,62.20
2019-04-14T02:01:14.963Z,64.27
2019-04-14T02:03:47.793Z,57.00
2019-04-14T02:06:20.468Z,64.63
2019-04-14T02:08:54.720Z,62.10
2019-04-14T02:11:27.065Z,54.33
2019-04-14T02:13:59.400Z,67.63
2019-04-14T02:16:39.763Z,63.93
2019-04-14T02:19:06.620Z,66.83
2019-04-14T02:21:38.960Z,64.60
2019-04-14T02:24:11.415Z,57.00
2019-04-14T02:26:43.913Z,64.70
2019-04-14T02:29:16.841Z,61.67
2019-04-14T02:32:17.380Z,63.33
2019-04-14T02:34:49.784Z,54.13
2019-04-14T02:37:26.708Z,60.20
2019-04-14T02:40:01.003Z,57.30
2019-04-14T02:53:05.216Z,61.53
2019-04-14T02:55:15.319Z,60.90
2019-04-14T02:57:52.658Z,60.13
2019-04-14T03:00:35.666Z,64.57
2019-04-14T03:02:59.554Z,54.17
2019-04-14T03:05:37.686Z,59.27
2019-04-14T03:08:06.486Z,58.90
2019-04-14T03:10:40.283Z,58.43
2019-04-14T03:16:13.741Z,58.80
2019-04-14T03:21:43.832Z,58.30
2019-04-14T03:24:31.721Z,62.63
2019-04-14T03:27:15.196Z,54.07
2019-04-14T03:29:59.949Z,58.50
2019-04-14T03:33:14.165Z,56.63
2019-04-14T03:35:20.017Z,55.93
2019-04-14T03:37:48.492Z,58.70
2019-04-14T03:40:08.820Z,59.60
2019-04-14T03:42:45.969Z,56.50
2019-04-14T03:45:28.346Z,62.40
2019-04-14T03:48:15.193Z,59.10
2019-04-14T03:53:08.165Z,65.23
2019-04-14T03:55:25.493Z,58.40
2019-04-14T03:57:45.462Z,59.60
2019-04-14T04:00:18.069Z,60.40
2019-04-14T04:02:51.176Z,59.20
2019-04-14T04:05:23.806Z,52.73
2019-04-14T04:07:56.065Z,60.07
2019-04-14T04:10:29.208Z,58.93
2019-04-14T04:13:01.960Z,55.70
2019-04-14T04:15:34.403Z,54.03
2019-04-14T04:18:20.280Z,52.07
2019-04-14T04:21:13.988Z,45.83
2019-04-14T04:23:56.083Z,48.03
2019-04-14T04:26:38.676Z,46.73
2019-04-14T04:29:15.780Z,48.87
2019-04-14T04:32:05.587Z,43.03
2019-04-14T04:34:59.915Z,44.67
2019-04-14T04:38:03.049Z,47.40
2019-04-14T04:40:35.384Z,43.63
2019-04-14T04:43:07.972Z,43.80
2019-04-14T04:45:40.887Z,47.47
2019-04-14T04:48:13.213Z,47.80
2019-04-14T04:50:45.398Z,45.90
2019-04-14T04:53:18.097Z,53.73
2019-04-14T04:55:50.761Z,46.80
2019-04-14T04:58:22.733Z,48.40
2019-04-14T05:00:57.352Z,47.70
2019-04-14T05:03:29.752Z,45.93
2019-04-14T05:07:09.716Z,50.00
2019-04-14T05:10:06.755Z,45.37
2019-04-14T05:12:48.143Z,46.43
2019-04-14T05:15:31.537Z,45.90
2019-04-14T05:18:04.596Z,44.03
2019-04-14T05:20:37.778Z,49.53
2019-04-14T05:23:10.256Z,55.17
2019-04-14T05:25:43.027Z,41.47
2019-04-14T05:28:15.582Z,42.10
2019-04-14T05:30:48.329Z,38.57
2019-04-14T05:33:20.710Z,40.07
2019-04-14T05:35:53.216Z,47.80
2019-04-14T05:38:26.161Z,41.43
2019-04-14T05:41:00.328Z,44.27
2019-04-14T05:43:40.613Z,41.20
2019-04-14T05:46:06.236Z,45.47
2019-04-14T05:48:38.261Z,40.33
2019-04-14T05:51:10.983Z,39.30
2019-04-14T05:53:43.832Z,36.00
2019-04-14T05:56:16.443Z,38.07
2019-04-14T05:58:49.326Z,36.43
2019-04-14T06:01:22.361Z,37.13
2019-04-14T06:03:54.562Z,39.13
2019-04-14T06:06:26.716Z,44.97
2019-04-14T06:08:58.935Z,44.93
2019-04-14T06:11:31.218Z,43.57
2019-04-14T06:14:03.250Z,37.83
2019-04-14T06:16:35.256Z,49.37
2019-04-14T06:19:08.654Z,46.00
2019-04-14T06:21:42.742Z,43.23
2019-04-14T06:24:14.802Z,41.83
2019-04-14T06:26:46.927Z,41.00
2019-04-14T06:29:18.907Z,46.30
2019-04-14T06:32:19.981Z,39.97
2019-04-14T06:35:09.396Z,45.40
2019-04-14T06:37:53.878Z,39.40
2019-04-14T06:40:26.990Z,44.93
2019-04-14T06:42:58.957Z,42.97
2019-04-14T06:45:30.908Z,44.53
2019-04-14T06:48:02.924Z,37.27
2019-04-14T06:50:35.018Z,32.90
2019-04-14T06:53:07.152Z,35.50
2019-04-14T06:55:39.141Z,33.30
2019-04-14T06:58:11.300Z,36.57
2019-04-14T07:00:43.273Z,38.60
2019-04-14T07:03:15.255Z,34.27
2019-04-14T07:05:47.239Z,36.73
2019-04-14T07:08:19.182Z,32.70
2019-04-14T07:10:51.277Z,34.53
2019-04-14T07:13:23.256Z,37.63
2019-04-14T07:15:56.734Z,35.60
2019-04-14T07:18:28.759Z,36.23
2019-04-14T07:21:01.017Z,35.30
2019-04-14T07:23:33.009Z,33.13
2019-04-14T07:26:05.175Z,37.37
2019-04-14T07:28:37.165Z,36.07
2019-04-14T07:31:23.767Z,32.40
2019-04-14T07:34:04.170Z,29.67
2019-04-14T07:36:54.997Z,32.53
2019-04-14T07:39:45.892Z,33.57
2019-04-14T07:42:30.224Z,32.17
2019-04-14T07:45:39.175Z,38.10
2019-04-14T07:48:15.976Z,36.33
2019-04-14T07:50:56.558Z,32.33
2019-04-14T07:53:56.592Z,29.87
2019-04-14T07:56:50.437Z,32.93
2019-04-14T07:59:41.266Z,30.87
2019-04-14T08:02:22.527Z,28.37
2019-04-14T08:05:00.775Z,34.97
2019-04-14T08:07:32.736Z,40.47
2019-04-14T08:10:04.816Z,30.43
2019-04-14T08:12:38.337Z,29.60
2019-04-14T08:15:10.587Z,34.47
2019-04-14T08:17:43.709Z,31.93
2019-04-14T08:20:26.931Z,33.70
2019-04-14T08:22:50.689Z,33.97
2019-04-14T08:25:22.743Z,40.00
2019-04-14T08:27:54.842Z,35.33
2019-04-14T08:30:27.926Z,31.00
2019-04-14T08:33:00.438Z,36.70
2019-04-14T08:35:32.392Z,41.23
2019-04-14T08:38:04.609Z,30.77
2019-04-14T08:40:36.576Z,31.83
2019-04-14T08:43:26.094Z,28.63
2019-04-14T08:46:13.535Z,35.87
2019-04-14T08:48:52.252Z,32.50
2019-04-14T08:51:28.647Z,32.70
2019-04-14T08:54:06.807Z,28.53
2019-04-14T08:57:00.759Z,31.77
2019-04-14T08:59:50.325Z,30.70
2019-04-14T09:02:47.472Z,28.20
2019-04-14T09:05:41.668Z,25.48
2019-04-14T09:08:32.508Z,28.15
2019-04-14T09:11:05.933Z,20.80
2019-04-14T09:13:37.999Z,48.20
2019-04-14T09:16:10.408Z,28.90
2019-04-14T09:18:42.405Z,24.20
2019-04-14T09:21:14.423Z,23.15
2019-04-14T09:23:46.422Z,26.73
2019-04-14T09:26:18.463Z,25.48
2019-04-14T09:28:50.803Z,21.73
2019-04-14T09:31:22.833Z,25.27
2019-04-14T09:33:54.878Z,20.85
2019-04-14T09:36:26.908Z,27.42
2019-04-14T09:38:58.909Z,32.67
2019-04-14T09:41:30.965Z,28.55
2019-04-14T09:44:02.943Z,22.77
2019-04-14T09:46:35.132Z,25.05
2019-04-14T09:49:07.338Z,25.43
2019-04-14T09:51:40.025Z,25.37
2019-04-14T09:54:12.015Z,25.02
2019-04-14T09:56:44.012Z,23.30
2019-04-14T09:59:15.981Z,23.35
2019-04-14T10:01:48.073Z,25.45
2019-04-14T10:04:20.412Z,19.90
2019-04-14T10:06:52.368Z,23.55
2019-04-14T10:09:24.457Z,23.60
2019-04-14T10:11:59.393Z,18.57
2019-04-14T10:14:31.397Z,19.52
2019-04-14T10:17:03.418Z,22.85
2019-04-14T10:19:35.409Z,20.23
2019-04-14T10:22:07.455Z,21.42
2019-04-14T10:24:39.530Z,20.48
2019-04-14T10:27:11.665Z,22.48
2019-04-14T10:29:44.905Z,21.27
2019-04-14T10:32:16.877Z,21.60
2019-04-14T10:34:48.833Z,20.17
2019-04-14T10:37:21.265Z,27.30
2019-04-14T10:39:53.288Z,19.52
2019-04-14T10:42:25.321Z,21.73
2019-04-14T10:44:57.293Z,26.27
2019-04-14T10:47:29.415Z,18.95
2019-04-14T10:50:01.519Z,19.17
2019-04-14T10:52:33.529Z,19.75
2019-04-14T10:55:05.967Z,24.60
2019-04-14T10:57:38.005Z,19.35
2019-04-14T11:00:14.387Z,21.02
2019-04-14T11:02:46.870Z,14.93
2019-04-14T11:05:18.833Z,18.35
2019-04-14T11:07:51.277Z,17.57
2019-04-14T11:10:23.435Z,14.00
2019-04-14T11:12:55.430Z,18.17
2019-04-14T11:15:27.474Z,18.17
2019-04-14T11:17:59.514Z,22.17
2019-04-14T11:20:31.492Z,32.83
2019-04-14T11:23:03.868Z,21.53
2019-04-14T11:25:36.591Z,17.63
2019-04-14T11:28:08.590Z,17.43
2019-04-14T11:30:40.825Z,21.90
2019-04-14T11:33:21.629Z,18.97
2019-04-14T11:36:12.540Z,17.70
2019-04-14T11:38:49.677Z,20.70
2019-04-14T11:41:23.490Z,21.13
2019-04-14T11:43:55.466Z,21.67
2019-04-14T11:46:27.599Z,23.87
2019-04-14T11:49:00.133Z,19.30
2019-04-14T11:51:32.292Z,19.73
2019-04-14T11:54:04.628Z,21.53
2019-04-14T11:56:36.743Z,28.83
2019-04-14T11:59:08.863Z,40.80
2019-04-14T12:01:59.201Z,38.00
2019-04-14T12:04:34.955Z,46.07
2019-04-14T12:07:16.201Z,25.97
2019-04-14T12:09:57.021Z,23.17
2019-04-14T12:12:29.095Z,34.10
2019-04-14T12:15:01.246Z,36.87
2019-04-14T12:17:33.255Z,26.30
2019-04-14T12:20:06.888Z,23.13
2019-04-14T12:22:38.918Z,24.53
2019-04-14T12:25:11.853Z,21.53
2019-04-14T12:27:44.356Z,29.17
2019-04-14T12:30:17.934Z,27.87
2019-04-14T12:32:50.366Z,22.10
2019-04-14T12:35:22.418Z,20.67
2019-04-14T12:37:54.492Z,20.57
2019-04-14T12:40:26.733Z,22.17
2019-04-14T12:43:22.415Z,21.93
2019-04-14T12:46:28.445Z,20.93
2019-04-14T12:49:08.432Z,23.97
2019-04-14T12:51:47.853Z,23.63
2019-04-14T12:54:19.953Z,22.53
2019-04-14T12:56:52.942Z,23.80
2019-04-14T12:59:25.092Z,21.03
2019-04-14T13:02:18.731Z,17.63
2019-04-14T13:04:51.131Z,20.77
2019-04-14T13:07:23.065Z,19.00
2019-04-14T13:09:55.097Z,21.23
2019-04-14T13:12:27.135Z,19.00
2019-04-14T13:14:59.216Z,21.40
2019-04-14T13:17:31.272Z,19.30
2019-04-14T13:20:03.301Z,18.30
2019-04-14T13:22:35.426Z,19.17
2019-04-14T13:25:08.290Z,17.27
2019-04-14T13:27:40.640Z,18.00
2019-04-14T13:30:14.811Z,22.57
2019-04-14T13:32:46.869Z,20.27
2019-04-14T13:35:18.942Z,25.23
2019-04-14T13:37:51.340Z,22.57
2019-04-14T13:40:23.388Z,20.73
2019-04-14T13:42:55.391Z,20.23
2019-04-14T13:45:27.405Z,23.00
2019-04-14T13:47:59.512Z,21.57
2019-04-14T13:50:31.770Z,18.90
2019-04-14T13:53:03.898Z,28.33
2019-04-14T13:55:35.886Z,24.63
2019-04-14T13:58:07.879Z,20.93
2019-04-14T14:00:39.851Z,23.90
2019-04-14T14:03:11.913Z,19.73
2019-04-14T14:05:44.021Z,20.70
2019-04-14T14:08:16.031Z,18.37
2019-04-14T14:10:48.008Z,22.40
2019-04-14T14:13:48.086Z,23.23
2019-04-14T14:16:40.022Z,21.27
2019-04-14T14:19:31.522Z,26.90
2019-04-14T14:22:13.395Z,23.73
2019-04-14T14:25:01.559Z,20.30
2019-04-14T14:27:33.732Z,23.63
2019-04-14T14:30:06.293Z,22.63
2019-04-14T14:32:42.874Z,20.07
2019-04-14T14:35:14.940Z,25.23
2019-04-14T14:37:46.969Z,20.50
2019-04-14T14:40:20.813Z,24.40
2019-04-14T14:42:52.998Z,24.33
2019-04-14T14:45:49.787Z,18.97
2019-04-14T14:48:25.365Z,20.37
2019-04-14T14:51:17.940Z,19.60
2019-04-14T14:53:50.045Z,18.03
2019-04-14T14:56:22.161Z,22.97
2019-04-14T14:58:54.141Z,19.70
2019-04-14T15:01:26.245Z,22.47
2019-04-14T15:03:58.406Z,26.57
2019-04-14T15:06:30.496Z,22.57
2019-04-14T15:09:05.132Z,24.10
2019-04-14T15:11:37.281Z,22.73
2019-04-14T15:14:09.276Z,23.83
2019-04-14T15:16:41.416Z,20.77
2019-04-14T15:19:13.568Z,20.37
2019-04-14T15:21:45.701Z,22.63
2019-04-14T15:24:17.714Z,25.13
2019-04-14T15:26:52.140Z,19.63
2019-04-14T15:29:25.949Z,18.67
2019-04-14T15:31:58.144Z,20.37
2019-04-14T15:34:30.460Z,26.60
2019-04-14T15:37:02.534Z,23.90
2019-04-14T15:39:37.408Z,24.10
2019-04-14T15:42:08.212Z,21.87
2019-04-14T15:44:40.700Z,31.07
2019-04-14T15:47:14.236Z,26.80
2019-04-14T15:49:46.403Z,32.67
2019-04-14T15:52:18.577Z,22.70
2019-04-14T15:54:51.014Z,24.27
2019-04-14T15:57:44.761Z,20.23
2019-04-14T16:00:40.198Z,21.13
2019-04-14T16:03:23.465Z,24.70
2019-04-14T16:06:12.864Z,19.27
2019-04-14T16:08:51.877Z,19.17
2019-04-14T16:11:54.863Z,23.27
2019-04-14T16:14:57.760Z,16.63
2019-04-14T16:17:50.283Z,24.63
2019-04-14T16:20:26.147Z,23.80
2019-04-14T16:22:58.148Z,20.03
2019-04-14T16:25:54.339Z,21.80
2019-04-14T16:28:48.229Z,19.47
2019-04-14T16:31:44.307Z,23.43
2019-04-14T16:34:29.479Z,24.93
2019-04-14T16:37:01.425Z,26.47
2019-04-14T16:39:33.537Z,25.63
2019-04-14T16:42:05.567Z,21.97
2019-04-14T16:44:37.575Z,15.67
2019-04-14T16:47:09.572Z,18.27
2019-04-14T16:49:41.549Z,30.27
2019-04-14T16:52:42.680Z,24.90
2019-04-14T16:55:23.790Z,27.70
2019-04-14T16:58:13.315Z,54.10
2019-04-14T17:00:48.813Z,52.07
2019-04-14T17:03:21.188Z,20.20
2019-04-14T17:05:53.324Z,30.97
2019-04-14T17:08:25.321Z,24.33
2019-04-14T17:10:57.312Z,35.07
2019-04-14T17:13:31.667Z,37.43
2019-04-14T17:16:28.365Z,27.13
2019-04-14T17:19:07.389Z,27.93
2019-04-14T17:21:50.325Z,23.83
2019-04-14T17:24:35.302Z,27.33
2019-04-14T17:27:23.743Z,24.87
2019-04-14T17:30:27.074Z,31.83
2019-04-14T17:33:33.203Z,23.30
2019-04-14T17:36:12.241Z,23.07
2019-04-14T17:39:08.962Z,23.33
2019-04-14T17:42:09.161Z,33.73
2019-04-14T17:45:12.418Z,22.83
2019-04-14T17:47:50.520Z,25.70
2019-04-14T17:50:40.837Z,19.77
2019-04-14T17:53:34.487Z,25.57
2019-04-14T17:56:13.448Z,29.43
2019-04-14T17:59:01.685Z,26.17
2019-04-14T18:01:52.997Z,25.27
2019-04-14T18:04:32.825Z,28.40
2019-04-14T18:07:13.795Z,25.10
2019-04-14T18:10:04.745Z,24.03
2019-04-14T18:12:45.453Z,28.37
2019-04-14T18:15:39.634Z,27.43
2019-04-14T18:18:33.616Z,27.03
2019-04-14T18:21:07.906Z,31.60
2019-04-14T18:23:40.279Z,30.00
2019-04-14T18:26:14.201Z,27.97
2019-04-14T18:29:20.564Z,32.67
2019-04-14T18:32:13.028Z,27.90
2019-04-14T18:34:58.716Z,22.10
2019-04-14T18:37:53.213Z,29.83
2019-04-14T18:40:36.227Z,30.40
2019-04-14T18:43:33.058Z,32.47
2019-04-14T18:46:20.123Z,32.23
2019-04-14T18:49:14.395Z,32.30
2019-04-14T18:52:11.302Z,37.03
2019-04-14T18:54:58.620Z,33.70
2019-04-14T18:57:43.618Z,41.80
2019-04-14T19:00:23.781Z,50.07
2019-04-14T19:02:55.894Z,46.70
2019-04-14T19:05:28.505Z,49.80
2019-04-14T19:08:00.950Z,40.93
2019-04-14T19:10:33.389Z,44.83
2019-04-14T19:13:18.607Z,46.50
2019-04-14T19:16:04.782Z,41.67
2019-04-14T19:18:42.999Z,32.60
2019-04-14T19:21:17.280Z,39.67
2019-04-14T19:23:49.329Z,37.47
2019-04-14T19:26:21.397Z,39.27
2019-04-14T19:28:53.497Z,35.57
2019-04-14T19:31:25.488Z,39.17
2019-04-14T19:33:57.492Z,37.87
2019-04-14T19:36:29.614Z,39.10
2019-04-14T19:39:01.563Z,40.97
2019-04-14T19:41:33.551Z,42.77
2019-04-14T19:44:05.626Z,54.30
2019-04-14T19:46:37.627Z,46.80
2019-04-14T19:49:10.221Z,48.63
2019-04-14T19:51:43.296Z,46.63
2019-04-14T19:54:15.635Z,50.17
2019-04-14T19:56:47.712Z,55.80
2019-04-14T19:59:20.702Z,46.03
2019-04-14T20:01:52.673Z,41.03
2019-04-14T20:04:25.004Z,49.37
2019-04-14T20:06:58.880Z,44.33
2019-04-14T20:09:31.298Z,41.20
2019-04-14T20:12:03.376Z,45.17
2019-04-14T20:14:35.437Z,41.43
2019-04-14T20:17:25.376Z,58.63
2019-04-14T20:20:09.978Z,50.80
2019-04-14T20:23:09.879Z,48.83
2019-04-14T20:26:01.050Z,51.80
2019-04-14T20:28:46.868Z,45.90
2019-04-14T20:31:33.059Z,48.93
2019-04-14T20:34:05.264Z,39.77
2019-04-14T20:36:37.517Z,44.67
2019-04-14T20:39:15.126Z,41.53
2019-04-14T20:41:47.243Z,46.53
2019-04-14T20:44:19.400Z,51.73
2019-04-14T20:46:51.484Z,38.03
2019-04-14T20:49:23.569Z,47.90
2019-04-14T20:51:55.548Z,37.73
2019-04-14T20:54:27.643Z,35.63
2019-04-14T20:57:00.476Z,32.87
2019-04-14T20:59:32.439Z,41.07
2019-04-14T21:02:22.628Z,41.73
2019-04-14T21:05:10.436Z,41.87
2019-04-14T21:07:59.944Z,39.20
2019-04-14T21:10:37.579Z,38.00
2019-04-14T21:13:16.635Z,38.33
2019-04-14T21:15:57.191Z,38.63
2019-04-14T21:18:34.652Z,43.23
2019-04-14T21:21:18.521Z,45.70
2019-04-14T21:24:01.698Z,42.90
2019-04-14T21:26:45.242Z,44.20
2019-04-14T21:29:35.028Z,34.43
2019-04-14T21:32:12.737Z,30.87
2019-04-14T21:35:02.580Z,29.20
2019-04-14T21:37:59.259Z,30.07
2019-04-14T21:40:52.558Z,33.27
2019-04-14T21:43:24.561Z,37.23
2019-04-14T21:45:56.539Z,35.70
2019-04-14T21:48:28.562Z,36.17
2019-04-14T21:51:01.035Z,36.63
2019-04-14T21:53:33.182Z,34.30
2019-04-14T21:56:13.230Z,43.27
2019-04-14T21:58:48.224Z,37.40
2019-04-14T22:01:57.191Z,36.73
2019-04-14T22:04:47.987Z,43.17
2019-04-14T22:07:38.975Z,40.20
2019-04-14T22:10:42.788Z,40.27
2019-04-14T22:13:16.352Z,42.27
2019-04-14T22:15:48.293Z,38.80
2019-04-14T22:18:20.257Z,47.13
2019-04-14T22:20:52.507Z,47.53
2019-04-14T22:23:24.774Z,43.60
2019-04-14T22:25:56.880Z,41.07
2019-04-14T22:28:29.939Z,42.43
2019-04-14T22:31:02.217Z,41.30
2019-04-14T22:33:35.278Z,39.13
2019-04-14T22:36:07.401Z,45.93
2019-04-14T22:38:39.471Z,41.00
2019-04-14T22:41:11.420Z,44.00
2019-04-14T22:43:43.505Z,45.43
2019-04-14T22:46:15.621Z,38.47
2019-04-14T22:48:47.773Z,50.20
2019-04-14T22:51:19.719Z,44.97
2019-04-14T22:53:51.706Z,46.70
2019-04-14T22:56:23.768Z,47.43
2019-04-14T22:58:55.793Z,45.40
2019-04-14T23:01:30.629Z,49.80
2019-04-14T23:05:22.727Z,47.67
2019-04-14T23:08:13.632Z,47.10
2019-04-14T23:11:10.649Z,46.23
2019-04-14T23:13:48.746Z,43.40
2019-04-14T23:16:51.676Z,36.87
2019-04-14T23:19:30.489Z,36.53
2019-04-14T23:22:24.478Z,42.50
2019-04-14T23:24:56.552Z,38.53
2019-04-14T23:27:28.606Z,39.13
2019-04-14T23:30:00.843Z,41.93
2019-04-14T23:32:32.870Z,42.60
2019-04-14T23:35:05.368Z,39.27
2019-04-14T23:37:37.412Z,38.00
2019-04-14T23:40:09.585Z,40.77
2019-04-14T23:42:41.551Z,42.50
2019-04-14T23:45:13.604Z,38.33
2019-04-14T23:47:45.587Z,36.17
2019-04-14T23:50:17.533Z,39.30
2019-04-14T23:52:49.973Z,41.50
2019-04-14T23:55:21.992Z,35.57
2019-04-14T23:57:53.973Z,37.73
